createdAt,value
2018-07-11T11:03:01.555Z,24.68
2018-07-11T11:05:35.998Z,24.38
2018-07-11T11:08:09.493Z,24.65
2018-07-11T11:10:41.480Z,24.85
2018-07-11T11:13:10.131Z,24.91
2018-07-11T11:15:40.132Z,25.36
2018-07-11T11:18:11.479Z,24.99
2018-07-11T11:20:46.928Z,24.91
2018-07-11T11:23:20.421Z,24.94
2018-07-11T11:25:52.700Z,25.05
2018-07-11T11:28:22.945Z,25.25
2018-07-11T11:30:53.761Z,25.21
2018-07-11T11:33:24.562Z,24.84
2018-07-11T11:35:56.727Z,25.03
2018-07-11T11:38:28.314Z,25.03
2018-07-11T11:41:00.564Z,24.90
2018-07-11T11:43:38.231Z,24.81
2018-07-11T11:46:10.366Z,24.59
2018-07-11T11:48:44.938Z,24.90
2018-07-11T11:51:15.243Z,25.37
2018-07-11T11:53:45.721Z,25.50
2018-07-11T11:56:18.236Z,25.05
2018-07-11T11:58:56.483Z,24.91
2018-07-11T12:01:32.065Z,25.08
2018-07-11T12:04:02.862Z,24.96
2018-07-11T12:06:33.452Z,24.88
2018-07-11T12:09:12.947Z,25.02
2018-07-11T12:11:45.838Z,25.68
2018-07-11T12:14:17.699Z,25.64
2018-07-11T12:16:59.358Z,26.14
2018-07-11T12:19:36.007Z,26.34
2018-07-11T12:22:11.409Z,26.26
2018-07-11T12:24:46.419Z,25.75
2018-07-11T12:27:25.075Z,24.84
2018-07-11T12:30:06.580Z,24.77
2018-07-11T12:32:36.856Z,24.51
2018-07-11T12:35:12.049Z,24.49
2018-07-11T12:37:47.008Z,24.62
2018-07-11T12:40:20.285Z,24.88
2018-07-11T12:42:55.778Z,24.55
2018-07-11T12:45:26.993Z,24.24
2018-07-11T12:49:04.519Z,24.24
2018-07-11T12:51:37.583Z,24.81
2018-07-11T12:54:16.224Z,25.29
2018-07-11T12:56:44.826Z,25.57
2018-07-11T12:59:13.694Z,25.82
2018-07-11T13:01:42.630Z,25.63
2018-07-11T13:04:14.430Z,25.97
2018-07-11T13:06:45.545Z,25.97
2018-07-11T13:09:17.718Z,26.01
2018-07-11T13:11:53.464Z,26.19
2018-07-11T13:14:26.015Z,26.06
2018-07-11T13:17:04.185Z,26.16
2018-07-11T13:19:33.608Z,26.13
2018-07-11T13:22:28.223Z,26.36
2018-07-11T19:17:09.438Z,19.09
2018-07-11T19:19:49.323Z,19.15
2018-07-11T19:23:30.968Z,19.16
2018-07-11T19:26:21.574Z,19.14
2018-07-11T19:29:05.344Z,19.15
2018-07-11T19:31:45.638Z,19.13
2018-07-11T19:34:56.433Z,19.10
2018-07-11T19:37:41.833Z,19.16
2018-07-11T19:41:21.369Z,19.17
2018-07-11T19:46:05.296Z,19.15
2018-07-11T19:50:52.971Z,19.01
2018-07-11T19:53:34.059Z,18.89
2018-07-11T19:56:11.801Z,18.94
2018-07-11T19:58:46.706Z,19.00
2018-07-11T20:04:47.666Z,19.07
2018-07-11T20:07:16.255Z,19.06
2018-07-11T20:09:46.126Z,19.10
2018-07-11T20:12:16.127Z,19.03
2018-07-11T20:14:45.482Z,19.00
2018-07-11T20:17:14.559Z,18.98
2018-07-11T20:19:44.040Z,19.07
2018-07-11T20:22:12.807Z,19.11
2018-07-11T20:24:41.883Z,19.13
2018-07-11T20:27:11.399Z,19.17
2018-07-11T20:29:41.347Z,19.14
2018-07-11T20:32:10.852Z,19.16
2018-07-11T20:34:40.546Z,19.18
2018-07-11T20:37:09.822Z,19.20
2018-07-11T20:39:38.898Z,19.20
2018-07-11T20:42:08.310Z,19.22
2018-07-11T20:44:37.750Z,19.25
2018-07-11T20:47:08.342Z,19.27
2018-07-11T20:49:37.970Z,19.28
2018-07-11T20:52:07.210Z,19.26
2018-07-11T20:54:36.316Z,19.26
2018-07-11T20:57:05.576Z,19.25
2018-07-11T20:59:45.400Z,19.26
2018-07-11T21:02:25.362Z,19.27
2018-07-11T21:05:33.640Z,19.22
2018-07-11T21:08:09.699Z,19.22
2018-07-11T21:12:52.036Z,19.20
2018-07-11T21:16:33.166Z,19.06
2018-07-11T21:19:10.865Z,19.02
2018-07-11T21:21:40.223Z,19.06
2018-07-11T21:24:10.031Z,19.11
2018-07-11T21:26:38.751Z,19.15
2018-07-11T21:32:38.368Z,19.22
2018-07-11T21:35:06.787Z,19.22
2018-07-11T21:37:35.140Z,19.29
2018-07-11T21:40:04.119Z,19.24
2018-07-11T21:42:33.524Z,19.22
2018-07-11T21:45:02.248Z,19.14
2018-07-11T21:47:30.449Z,19.07
2018-07-11T21:49:59.664Z,18.98
2018-07-11T21:52:28.712Z,18.92
2018-07-11T21:54:58.184Z,18.95
2018-07-11T21:57:27.187Z,18.96
2018-07-11T21:59:56.099Z,18.85
2018-07-11T22:02:25.214Z,18.76
2018-07-11T22:04:54.172Z,18.69
2018-07-11T22:07:23.135Z,18.62
2018-07-11T22:09:52.087Z,18.63
2018-07-11T22:12:21.128Z,18.50
2018-07-11T22:14:49.875Z,18.52
2018-07-11T22:19:34.436Z,18.59
2018-07-11T22:22:02.011Z,18.57
2018-07-11T22:24:29.435Z,18.62
2018-07-11T22:26:56.452Z,18.71
2018-07-11T22:29:23.909Z,18.69
2018-07-11T22:31:51.029Z,18.71
2018-07-11T22:34:18.684Z,18.77
2018-07-11T22:36:46.409Z,18.82
2018-07-11T22:39:13.830Z,18.76
2018-07-11T22:41:41.439Z,18.74
2018-07-11T22:44:09.977Z,18.74
2018-07-11T22:46:38.731Z,18.78
2018-07-11T22:49:08.140Z,18.75
2018-07-11T22:51:37.039Z,18.82
2018-07-11T22:54:05.636Z,18.80
2018-07-11T22:56:34.853Z,18.78
2018-07-11T22:59:03.135Z,18.83
2018-07-11T23:01:31.119Z,18.85
2018-07-11T23:04:00.530Z,18.79
2018-07-11T23:06:30.284Z,18.77
2018-07-11T23:08:57.943Z,18.77
2018-07-11T23:11:27.203Z,18.82
2018-07-11T23:13:55.840Z,18.81
2018-07-11T23:16:24.613Z,18.78
2018-07-11T23:18:53.133Z,18.81
2018-07-11T23:21:21.439Z,18.79
2018-07-11T23:23:51.436Z,18.79
2018-07-11T23:26:21.290Z,18.82
2018-07-11T23:28:49.658Z,18.84
2018-07-11T23:31:18.053Z,18.86
2018-07-11T23:33:46.637Z,18.85
2018-07-11T23:36:15.355Z,18.84
2018-07-11T23:38:44.388Z,18.76
2018-07-11T23:41:12.004Z,18.76
2018-07-11T23:43:39.628Z,18.71
2018-07-11T23:46:07.203Z,18.68
2018-07-11T23:48:35.803Z,18.72
2018-07-11T23:51:02.914Z,18.62
2018-07-11T23:53:30.537Z,18.67
2018-07-11T23:56:01.021Z,18.67
2018-07-11T23:58:30.279Z,18.68
